Fédération internationale de Ski
Member Section
Print

OFFICIAL RESULTS - FIRST TRAINING

PyeongChang (KOR) 08.02.2018

Training - Men's Downhill OFFICIAL RESULTS - FIRST TRAINING

Race codex : 0224
Valid for FIS Points : NO



Jury
TD FIS GURZELER THOMAS SUI
Referee Markus Waldner FIS
Assistant Referee Johannes Trinkl FIS
Chief of Race Inki Hong KOR
Technical Data
Start Altitude 1370 m.
Finish Altitude 545 m.
Vertical Drop 825 m.
Course Length 2965 m.
Homologation Number 11959/01/16
Run 1
Course Setter Johannes Trinkl FIS
Number of Gates 33
Start Time 11:00
 
Show more info»

Competitors

Rank Bib FIS Code Name Year Nation Total Time Diff.
 1  18  102899 OSBORNE-PARADIS Manuel  1984  CAN   1:40.45   
 2  17  421483 JANSRUD Kjetil  1985  NOR   1:40.76  +0.31
 3  8  511513 CAVIEZEL Mauro  1988  SUI   1:40.90  +0.45
 4  5  53902 MAYER Matthias  1990  AUT   1:41.20  +0.75
 5  16  194190 ROGER Brice  1990  FRA   1:41.37  +0.92
 6  6  53817 FRANZ Max  1989  AUT   1:41.39  +0.94
 7  2  6530104 BENNETT Bryce  1992  USA   1:41.43  +0.98
 8  30  511313 JANKA Carlo  1986  SUI   1:41.51  +1.06
 9  29  194167 MUZATON Maxence  1990  FRA   1:41.59  +1.14
 10  38  6530319 COCHRAN-SIEGLE Ryan  1992  USA   1:41.66  +1.21
 11  28  934643 GOLDBERG Jared  1991  USA   1:41.69  +1.24
 11  11  292455 FILL Peter  1982  ITA   1:41.69  +1.24
 11  7  192746 THEAUX Adrien  1984  FRA   1:41.69  +1.24
 14  14  422139 KILDE Aleksander Aamodt  1992  NOR   1:41.73  +1.28
 15  15  511383 FEUZ Beat  1987  SUI   1:41.86  +1.41
 16  47  530939 WEIBRECHT Andrew  1986  USA   1:42.06  +1.61
 17  20  293006 INNERHOFER Christof  1984  ITA   1:42.09  +1.64
 18  4  191740 CLAREY Johan  1981  FRA   1:42.24  +1.79
 19  21  511529 GISIN Marc  1988  SUI   1:42.25  +1.80
 20  9  421328 SVINDAL Aksel Lund  1982  NOR   1:42.26  +1.81
 21  25  202059 FERSTL Josef  1988  GER   1:42.30  +1.85
 22  3  53980 KRIECHMAYR Vincent  1991  AUT   1:42.33  +1.88
 23  39  930024 MAPLE Wiley  1990  USA   1:42.37  +1.92
 24  12  200379 SANDER Andreas  1989  GER   1:42.39  +1.94
 25  36  104096 THOMPSON Broderick  1994  CAN   1:42.42  +1.97
 25  22  103271 THOMSEN Benjamin  1987  CAN   1:42.42  +1.97
 27  23  6290985 BUZZI Emanuele  1994  ITA   1:42.47  +2.02
 28  13  50742 REICHELT Hannes  1980  AUT   1:42.53  +2.08
 29  19  291459 PARIS Dominik  1989  ITA   1:42.55  +2.10
 30  49  110324 VON APPEN Henrik  1994  CHI   1:42.70  +2.25
 31  1  202535 DRESSEN Thomas  1993  GER   1:42.73  +2.28
 32  40  531452 BIESEMEYER Thomas  1989  USA   1:42.77  +2.32
 33  27  511139 KUENG Patrick  1984  SUI   1:42.80  +2.35
 34  24  561216 KLINE Bostjan  1991  SLO   1:42.88  +2.43
 35  33  561217 KOSI Klemen  1991  SLO   1:42.89  +2.44
 36  10  512039 ROULIN Gilles  1994  SUI   1:42.92  +2.47
 37  35  194298 GIEZENDANNER Blaise  1991  FRA   1:43.00  +2.55
 38  26  561255 CATER Martin  1992  SLO   1:43.01  +2.56
 39  51  151215 FOREJTEK Filip  1997  CZE   1:43.23  +2.78
 40  61  193967 MUFFAT-JEANDET Victor  1989  FRA   1:43.27  +2.82
 41  56  104531 CRAWFORD James  1997  CAN   1:43.37  +2.92
 42  46  192504 MERMILLOD BLONDIN Thomas  1984  FRA   1:43.86  +3.41
 43  43  180570 ROMAR Andreas  1989  FIN   1:44.04  +3.59
 44  48  561310 HROBAT Miha  1995  SLO   1:44.08  +3.63
 45  41  100558 COOK Dustin  1989  CAN   1:44.12  +3.67
 46  31  53831 HIRSCHER Marcel  1989  AUT   1:44.38  +3.93
 47  34  310426 VUKICEVIC Marko  1992  SRB   1:44.49  +4.04
 48  52  20324 OLIVERAS Marc  1991  AND   1:44.56  +4.11
 49  32  194364 PINTURAULT Alexis  1991  FRA   1:44.57  +4.12
 50  57  511638 TUMLER Thomas  1989  SUI   1:44.68  +4.23
 51  75  54320 SCHWARZ Marco  1995  AUT   1:44.80  +4.35
 52  64  481327 TRIKHICHEV Pavel  1992  RUS   1:44.82  +4.37
 52  55  54117 HOERL Christopher  1989  MDA   1:44.82  +4.37
 52  37  380292 ZRNCIC DIM Natko  1986  CRO   1:44.82  +4.37
 55  54  511896 MURISIER Justin  1992  SUI   1:44.95  +4.50
 55  44  20398 VERDU Joan  1995  AND   1:44.95  +4.50
 57  60  534562 LIGETY Ted  1984  USA   1:45.36  +4.91
 58  66  380335 ZUBCIC Filip  1993  CRO   1:45.78  +5.33
 59  59  291318 TONETTI Riccardo  1989  ITA   1:46.12  +5.67
 60  50  430472 KLUSAK Michal  1990  POL   1:46.16  +5.71
 61  69  370022 JENOT Olivier  1988  MON   1:46.29  +5.84
 62  85  561322 HADALIN Stefan  1995  SLO   1:46.43  +5.98
 63  53  150743 BERNDT Ondrej  1988  CZE   1:46.61  +6.16
 64  63  151238 ZABYSTRAN Jan  1998  CZE   1:46.78  +6.33
 65  67  350095 PFIFFNER Marco  1994  LIE   1:46.94  +6.49
 66  58  102271 HUDEC Jan  1981  CZE   1:47.05  +6.60
 67  72  202451 STRASSER Linus  1992  GER   1:47.08  +6.63
 68  70  660021 DANILOCHKIN Yuri  1991  BLR   1:47.49  +7.04
 69  73  690694 KOVBASNYUK Ivan  1993  UKR   1:47.55  +7.10
 70  71  422082 FOSS-SOLEVAAG Sebastian  1991  NOR   1:47.60  +7.15
 71  78  550054 ZVEJNIEKS Kristaps  1992  LAT   1:47.93  +7.48
 72  65  670037 ZAKURDAEV Igor  1987  KAZ   1:48.15  +7.70
 73  82  54106 BREITFUSS KAMMERLANDER Simon  1992  BOL   1:48.19  +7.74
 74  80  942023 TAHIRI Albin  1989  KOS   1:48.47  +8.02
 75  84  700830 ZAMPA Adam  1990  SVK   1:49.20  +8.75
 76  83  700868 FALAT Matej  1993  SVK   1:49.94  +9.49
 77  68  310421 STEVOVIC Marko  1996  SRB   1:50.48  +10.03
 78  76  320391 KIM Dong Woo  1995  KOR   1:50.86  +10.41
 79  74  270047 MC MILLAN Patrick  1991  IRL   1:53.18  +12.73
 80  77  240139 KEKESI Marton  1995  HUN   1:53.91  +13.46
 81  62  511983 AERNI Luca  1993  SUI   2:05.12  +24.67
Did not finish
   45  170131 FAARUP Christoffer  1992  DEN     
Did not start
   81  700879 ZAMPA Andreas  1993  SVK     
   79  380290 SAMSAL Dalibor  1985  HUN     
   42  293550 MARSAGLIA Matteo  1985  ITA